Airfield :
LOGIN :

Register | Disclaimer

   EN    FR    IT 

 










Legend :    VFR   Marginal VFR   IFR   Intensive IFR   Very Intensive IFR
Visi :
Ceiling :
>= 8 km
>= 3000ft
5 to 8 km
1000 to 3000 ft
1500m to 5 km
500 to 1000 ft
800 to 1500m
200 to 500 ft
< 800m
< 200 ft
Symbols :   Thunderstorms  Fog  Heavy snow  Heavy precipitations  Wind > 20 kt
SIGMETs :     Misc.  Thunderstorms  Icing  Turbulence  Mountain Waves  Volcanic Ashes






- Airport Elevation : 313 ft
- IATA code : LEH


LFOH - Le Havre Octeville

CURRENT METAR :
  • 262330Z AUTO 20013KT 7000 OVC009 04/03 Q1014

EXPIRED METARs :
  • 262300Z AUTO 19013KT 9999 OVC009 03/02 Q1013
  • 262230Z AUTO 19013KT 9999 OVC012 04/02 Q1014
  • 262200Z AUTO 19013KT 7000 -RA OVC016 04/01 Q1014
  • 262130Z AUTO 18011KT 9999 OVC020 04/00 Q1014
  • 262100Z AUTO 19014KT 9999 OVC020 04/M01 Q1014

TAF TAF LFOH
Valid from the 26 at 12:00 until the 27 at 12:00 UTC


261100Z 2612/2712 20012KT CAVOK
TEMPO 2618/2623 4000 RA
BECMG 2620/2623 BKN007 OVC012
BECMG 2700/2702 2000 BR OVC001
BECMG 2704/2706 27010KT
TEMPO 2709/2712 7000 NSW OVC005
ATIS : +33 2 35 54 64 93



MET'MAP, your aeronautical weather chart ! - Copyright ORBIFLY December 2007 - Disclaimer

ORBIFLY MET'MAP TEAM :

Programming & Development : Alexandra Zaïnal
Concept & original design : Baudouin d'Aumeries
Assistance for programming : Marc-Olivier Méhu
Technical & hardware support : Manuel Goepfert

Contact : metmap@orbifly.com




SOURCES & CREDITS :

   NOAA